sensor_id;sensor_type;location;lat;lon;timestamp;temperature;humidity
48876;DHT22;34689;51.644;5.618;2023-04-12T00:02:24;11.10;99.90
48876;DHT22;34689;51.644;5.618;2023-04-12T00:04:52;11.10;99.90
48876;DHT22;34689;51.644;5.618;2023-04-12T00:07:24;11.10;99.90
48876;DHT22;34689;51.644;5.618;2023-04-12T00:09:50;11.10;99.90
48876;DHT22;34689;51.644;5.618;2023-04-12T00:12:17;11.00;99.90
48876;DHT22;34689;51.644;5.618;2023-04-12T00:14:44;11.00;99.90
48876;DHT22;34689;51.644;5.618;2023-04-12T00:17:09;11.00;99.90
48876;DHT22;34689;51.644;5.618;2023-04-12T00:19:36;10.90;99.90
48876;DHT22;34689;51.644;5.618;2023-04-12T00:22:09;10.90;99.90
48876;DHT22;34689;51.644;5.618;2023-04-12T00:24:37;10.90;99.90
48876;DHT22;34689;51.644;5.618;2023-04-12T00:27:04;10.90;99.90
48876;DHT22;34689;51.644;5.618;2023-04-12T00:29:31;10.90;99.90
48876;DHT22;34689;51.644;5.618;2023-04-12T00:31:57;10.90;99.90
48876;DHT22;34689;51.644;5.618;2023-04-12T00:34:26;10.90;99.90
48876;DHT22;34689;51.644;5.618;2023-04-12T00:36:52;10.90;99.90
48876;DHT22;34689;51.644;5.618;2023-04-12T00:39:18;10.90;99.90
48876;DHT22;34689;51.644;5.618;2023-04-12T00:41:43;10.80;99.90
48876;DHT22;34689;51.644;5.618;2023-04-12T00:44:09;10.90;99.90
48876;DHT22;34689;51.644;5.618;2023-04-12T00:46:35;10.80;99.90
48876;DHT22;34689;51.644;5.618;2023-04-12T00:49:02;10.80;99.90
48876;DHT22;34689;51.644;5.618;2023-04-12T00:51:31;10.80;99.90
48876;DHT22;34689;51.644;5.618;2023-04-12T00:53:58;10.80;99.90
48876;DHT22;34689;51.644;5.618;2023-04-12T00:56:26;10.80;99.90
48876;DHT22;34689;51.644;5.618;2023-04-12T00:58:56;10.80;99.90
48876;DHT22;34689;51.644;5.618;2023-04-12T01:01:22;10.70;99.90
48876;DHT22;34689;51.644;5.618;2023-04-12T01:03:52;10.70;99.90
48876;DHT22;34689;51.644;5.618;2023-04-12T01:09:02;10.60;99.90
48876;DHT22;34689;51.644;5.618;2023-04-12T01:11:33;10.60;99.90
48876;DHT22;34689;51.644;5.618;2023-04-12T01:14:26;10.60;99.90
48876;DHT22;34689;51.644;5.618;2023-04-12T01:16:56;10.60;99.90
48876;DHT22;34689;51.644;5.618;2023-04-12T01:25:10;10.50;99.90
48876;DHT22;34689;51.644;5.618;2023-04-12T01:27:52;10.40;99.90
48876;DHT22;34689;51.644;5.618;2023-04-12T01:30:21;10.40;99.90
48876;DHT22;34689;51.644;5.618;2023-04-12T01:32:50;10.40;99.90
48876;DHT22;34689;51.644;5.618;2023-04-12T01:35:18;10.30;99.90
48876;DHT22;34689;51.644;5.618;2023-04-12T01:37:48;10.30;99.90
48876;DHT22;34689;51.644;5.618;2023-04-12T01:40:14;10.30;99.90
48876;DHT22;34689;51.644;5.618;2023-04-12T01:42:40;10.30;99.90
48876;DHT22;34689;51.644;5.618;2023-04-12T01:45:06;10.30;99.90
48876;DHT22;34689;51.644;5.618;2023-04-12T01:47:32;10.30;99.90
48876;DHT22;34689;51.644;5.618;2023-04-12T01:50:24;10.30;99.90
48876;DHT22;34689;51.644;5.618;2023-04-12T01:53:00;10.30;99.90
48876;DHT22;34689;51.644;5.618;2023-04-12T01:55:29;10.20;99.90
48876;DHT22;34689;51.644;5.618;2023-04-12T01:57:56;10.20;99.90
48876;DHT22;34689;51.644;5.618;2023-04-12T02:00:22;10.20;99.90
48876;DHT22;34689;51.644;5.618;2023-04-12T02:02:49;10.20;99.90
48876;DHT22;34689;51.644;5.618;2023-04-12T02:05:15;10.10;99.90
48876;DHT22;34689;51.644;5.618;2023-04-12T02:07:41;10.10;99.90
48876;DHT22;34689;51.644;5.618;2023-04-12T02:10:13;10.20;99.90
48876;DHT22;34689;51.644;5.618;2023-04-12T02:12:39;10.20;99.90
48876;DHT22;34689;51.644;5.618;2023-04-12T02:15:05;10.10;99.90
48876;DHT22;34689;51.644;5.618;2023-04-12T02:17:32;10.10;99.90
48876;DHT22;34689;51.644;5.618;2023-04-12T02:19:58;10.10;99.90
48876;DHT22;34689;51.644;5.618;2023-04-12T02:22:24;10.10;99.90
48876;DHT22;34689;51.644;5.618;2023-04-12T02:24:50;10.10;99.90
48876;DHT22;34689;51.644;5.618;2023-04-12T02:27:16;10.10;99.90
48876;DHT22;34689;51.644;5.618;2023-04-12T02:29:43;10.10;99.90
48876;DHT22;34689;51.644;5.618;2023-04-12T02:32:09;10.10;99.90
48876;DHT22;34689;51.644;5.618;2023-04-12T02:34:35;10.10;99.90
48876;DHT22;34689;51.644;5.618;2023-04-12T02:37:03;10.10;99.90
48876;DHT22;34689;51.644;5.618;2023-04-12T02:39:29;10.10;99.90
48876;DHT22;34689;51.644;5.618;2023-04-12T02:41:56;10.10;99.90
48876;DHT22;34689;51.644;5.618;2023-04-12T02:44:22;10.10;99.90
48876;DHT22;34689;51.644;5.618;2023-04-12T02:46:48;10.00;99.90
48876;DHT22;34689;51.644;5.618;2023-04-12T02:49:14;10.00;99.90
48876;DHT22;34689;51.644;5.618;2023-04-12T02:51:39;10.10;99.90
48876;DHT22;34689;51.644;5.618;2023-04-12T02:54:06;10.00;99.90
48876;DHT22;34689;51.644;5.618;2023-04-12T02:56:34;10.10;99.90
48876;DHT22;34689;51.644;5.618;2023-04-12T02:59:00;10.10;99.90
48876;DHT22;34689;51.644;5.618;2023-04-12T03:01:26;10.10;99.90
48876;DHT22;34689;51.644;5.618;2023-04-12T03:03:51;10.00;99.90
48876;DHT22;34689;51.644;5.618;2023-04-12T03:06:17;10.00;99.90
48876;DHT22;34689;51.644;5.618;2023-04-12T03:08:43;10.00;99.90
48876;DHT22;34689;51.644;5.618;2023-04-12T03:11:09;10.00;99.90
48876;DHT22;34689;51.644;5.618;2023-04-12T03:13:34;10.00;99.90
48876;DHT22;34689;51.644;5.618;2023-04-12T03:16:19;10.00;99.90
48876;DHT22;34689;51.644;5.618;2023-04-12T03:18:45;9.90;99.90
48876;DHT22;34689;51.644;5.618;2023-04-12T03:21:11;9.90;99.90
48876;DHT22;34689;51.644;5.618;2023-04-12T03:23:37;9.80;99.90
48876;DHT22;34689;51.644;5.618;2023-04-12T03:26:02;9.90;99.90
48876;DHT22;34689;51.644;5.618;2023-04-12T03:28:28;9.80;99.90
48876;DHT22;34689;51.644;5.618;2023-04-12T03:30:54;9.80;99.90
48876;DHT22;34689;51.644;5.618;2023-04-12T03:33:20;9.80;99.90
48876;DHT22;34689;51.644;5.618;2023-04-12T03:35:46;9.80;99.90
48876;DHT22;34689;51.644;5.618;2023-04-12T03:38:11;9.80;99.90
48876;DHT22;34689;51.644;5.618;2023-04-12T03:40:39;9.70;99.90
48876;DHT22;34689;51.644;5.618;2023-04-12T03:43:05;9.70;99.90
48876;DHT22;34689;51.644;5.618;2023-04-12T03:45:31;9.70;99.90
48876;DHT22;34689;51.644;5.618;2023-04-12T03:47:56;9.70;99.90
48876;DHT22;34689;51.644;5.618;2023-04-12T03:50:22;9.70;99.90
48876;DHT22;34689;51.644;5.618;2023-04-12T03:52:48;9.60;99.90
48876;DHT22;34689;51.644;5.618;2023-04-12T03:55:14;9.60;99.90
48876;DHT22;34689;51.644;5.618;2023-04-12T03:57:42;9.60;99.90
48876;DHT22;34689;51.644;5.618;2023-04-12T04:00:09;9.60;99.90
48876;DHT22;34689;51.644;5.618;2023-04-12T04:02:35;9.60;99.90
48876;DHT22;34689;51.644;5.618;2023-04-12T04:05:01;9.50;99.90
48876;DHT22;34689;51.644;5.618;2023-04-12T04:07:28;9.50;99.90
48876;DHT22;34689;51.644;5.618;2023-04-12T04:09:56;9.50;99.90
48876;DHT22;34689;51.644;5.618;2023-04-12T04:12:22;9.50;99.90
48876;DHT22;34689;51.644;5.618;2023-04-12T04:14:47;9.40;99.90
48876;DHT22;34689;51.644;5.618;2023-04-12T04:17:13;9.50;99.90
48876;DHT22;34689;51.644;5.618;2023-04-12T04:19:39;9.40;99.90
48876;DHT22;34689;51.644;5.618;2023-04-12T04:22:05;9.40;99.90
48876;DHT22;34689;51.644;5.618;2023-04-12T04:24:31;9.40;99.90
48876;DHT22;34689;51.644;5.618;2023-04-12T04:26:58;9.30;99.90
48876;DHT22;34689;51.644;5.618;2023-04-12T04:29:24;9.40;99.90
48876;DHT22;34689;51.644;5.618;2023-04-12T04:31:50;9.40;99.90
48876;DHT22;34689;51.644;5.618;2023-04-12T04:34:17;9.40;99.90
48876;DHT22;34689;51.644;5.618;2023-04-12T04:36:43;9.40;99.90
48876;DHT22;34689;51.644;5.618;2023-04-12T04:39:09;9.30;99.90
48876;DHT22;34689;51.644;5.618;2023-04-12T04:41:35;9.30;99.90
48876;DHT22;34689;51.644;5.618;2023-04-12T04:44:04;9.30;99.90
48876;DHT22;34689;51.644;5.618;2023-04-12T04:46:37;9.30;99.90
48876;DHT22;34689;51.644;5.618;2023-04-12T04:49:04;9.30;99.90
48876;DHT22;34689;51.644;5.618;2023-04-12T04:51:30;9.30;99.90
48876;DHT22;34689;51.644;5.618;2023-04-12T04:53:56;9.30;99.90
48876;DHT22;34689;51.644;5.618;2023-04-12T04:56:22;9.20;99.90
48876;DHT22;34689;51.644;5.618;2023-04-12T04:58:49;9.20;99.90
48876;DHT22;34689;51.644;5.618;2023-04-12T05:01:15;9.20;99.90
48876;DHT22;34689;51.644;5.618;2023-04-12T05:03:41;9.20;99.90
48876;DHT22;34689;51.644;5.618;2023-04-12T05:06:12;9.20;99.90
48876;DHT22;34689;51.644;5.618;2023-04-12T05:08:37;9.20;99.90
48876;DHT22;34689;51.644;5.618;2023-04-12T05:11:03;9.20;99.90
48876;DHT22;34689;51.644;5.618;2023-04-12T05:13:29;9.20;99.90
48876;DHT22;34689;51.644;5.618;2023-04-12T05:15:55;9.30;99.90
48876;DHT22;34689;51.644;5.618;2023-04-12T05:18:21;9.30;99.90
48876;DHT22;34689;51.644;5.618;2023-04-12T05:20:47;9.30;99.90
48876;DHT22;34689;51.644;5.618;2023-04-12T05:23:13;9.30;99.90
48876;DHT22;34689;51.644;5.618;2023-04-12T05:25:46;9.30;99.90
48876;DHT22;34689;51.644;5.618;2023-04-12T05:28:13;9.30;99.90
48876;DHT22;34689;51.644;5.618;2023-04-12T05:30:39;9.20;99.90
48876;DHT22;34689;51.644;5.618;2023-04-12T05:33:05;9.30;99.90
48876;DHT22;34689;51.644;5.618;2023-04-12T05:35:31;9.30;99.90
48876;DHT22;34689;51.644;5.618;2023-04-12T05:37:57;9.20;99.90
48876;DHT22;34689;51.644;5.618;2023-04-12T05:40:22;9.30;99.90
48876;DHT22;34689;51.644;5.618;2023-04-12T05:42:48;9.30;99.90
48876;DHT22;34689;51.644;5.618;2023-04-12T05:45:14;9.30;99.90
48876;DHT22;34689;51.644;5.618;2023-04-12T05:47:39;9.30;99.90
48876;DHT22;34689;51.644;5.618;2023-04-12T05:50:05;9.30;99.90
48876;DHT22;34689;51.644;5.618;2023-04-12T05:52:31;9.20;99.90
48876;DHT22;34689;51.644;5.618;2023-04-12T05:54:57;9.20;99.90
48876;DHT22;34689;51.644;5.618;2023-04-12T05:57:24;9.30;99.90
48876;DHT22;34689;51.644;5.618;2023-04-12T05:59:49;9.20;99.90
48876;DHT22;34689;51.644;5.618;2023-04-12T06:02:15;9.20;99.90
48876;DHT22;34689;51.644;5.618;2023-04-12T06:04:41;9.20;99.90
48876;DHT22;34689;51.644;5.618;2023-04-12T06:07:07;9.20;99.90
48876;DHT22;34689;51.644;5.618;2023-04-12T06:09:34;9.20;99.90
48876;DHT22;34689;51.644;5.618;2023-04-12T06:12:00;9.20;99.90
48876;DHT22;34689;51.644;5.618;2023-04-12T06:14:27;9.20;99.90
48876;DHT22;34689;51.644;5.618;2023-04-12T06:16:55;9.20;99.90
48876;DHT22;34689;51.644;5.618;2023-04-12T06:19:20;9.20;99.90
48876;DHT22;34689;51.644;5.618;2023-04-12T06:21:46;9.20;99.90
48876;DHT22;34689;51.644;5.618;2023-04-12T06:24:12;9.30;99.90
48876;DHT22;34689;51.644;5.618;2023-04-12T06:26:38;9.30;99.90
48876;DHT22;34689;51.644;5.618;2023-04-12T06:29:06;9.30;99.90
48876;DHT22;34689;51.644;5.618;2023-04-12T06:31:32;9.30;99.90
48876;DHT22;34689;51.644;5.618;2023-04-12T06:33:57;9.30;99.90
48876;DHT22;34689;51.644;5.618;2023-04-12T06:36:23;9.30;99.90
48876;DHT22;34689;51.644;5.618;2023-04-12T06:38:49;9.30;99.90
48876;DHT22;34689;51.644;5.618;2023-04-12T06:41:15;9.30;99.90
48876;DHT22;34689;51.644;5.618;2023-04-12T06:43:41;9.30;99.90
48876;DHT22;34689;51.644;5.618;2023-04-12T06:46:07;9.30;99.90
48876;DHT22;34689;51.644;5.618;2023-04-12T06:48:33;9.40;99.90
48876;DHT22;34689;51.644;5.618;2023-04-12T06:50:59;9.30;99.90
48876;DHT22;34689;51.644;5.618;2023-04-12T06:53:24;9.40;99.90
48876;DHT22;34689;51.644;5.618;2023-04-12T06:55:50;9.40;99.90
48876;DHT22;34689;51.644;5.618;2023-04-12T06:58:16;9.40;99.90
48876;DHT22;34689;51.644;5.618;2023-04-12T07:00:42;9.40;99.90
48876;DHT22;34689;51.644;5.618;2023-04-12T07:03:08;9.40;99.90
48876;DHT22;34689;51.644;5.618;2023-04-12T07:05:37;9.30;99.90
48876;DHT22;34689;51.644;5.618;2023-04-12T07:08:04;9.30;99.90
48876;DHT22;34689;51.644;5.618;2023-04-12T07:10:29;9.30;99.90
48876;DHT22;34689;51.644;5.618;2023-04-12T07:12:55;9.30;99.90
48876;DHT22;34689;51.644;5.618;2023-04-12T07:15:23;9.30;99.90
48876;DHT22;34689;51.644;5.618;2023-04-12T07:17:48;9.20;99.90
48876;DHT22;34689;51.644;5.618;2023-04-12T07:20:14;9.30;99.90
48876;DHT22;34689;51.644;5.618;2023-04-12T07:22:40;9.20;99.90
48876;DHT22;34689;51.644;5.618;2023-04-12T07:25:06;9.20;99.90
48876;DHT22;34689;51.644;5.618;2023-04-12T07:27:35;9.20;99.90
48876;DHT22;34689;51.644;5.618;2023-04-12T07:30:01;9.20;99.90
48876;DHT22;34689;51.644;5.618;2023-04-12T07:32:26;9.30;99.90
48876;DHT22;34689;51.644;5.618;2023-04-12T07:34:52;9.40;99.90
48876;DHT22;34689;51.644;5.618;2023-04-12T07:37:18;9.40;99.90
48876;DHT22;34689;51.644;5.618;2023-04-12T07:39:44;9.40;99.90
48876;DHT22;34689;51.644;5.618;2023-04-12T07:42:10;9.40;99.90
48876;DHT22;34689;51.644;5.618;2023-04-12T07:44:35;9.40;99.90
48876;DHT22;34689;51.644;5.618;2023-04-12T07:47:01;9.50;99.90
48876;DHT22;34689;51.644;5.618;2023-04-12T07:49:27;9.40;99.90
48876;DHT22;34689;51.644;5.618;2023-04-12T07:51:53;9.50;99.90
48876;DHT22;34689;51.644;5.618;2023-04-12T07:54:18;9.50;99.90
48876;DHT22;34689;51.644;5.618;2023-04-12T07:56:57;9.50;99.90
48876;DHT22;34689;51.644;5.618;2023-04-12T07:59:23;9.50;99.90
48876;DHT22;34689;51.644;5.618;2023-04-12T08:01:49;9.50;99.90
48876;DHT22;34689;51.644;5.618;2023-04-12T08:04:15;9.50;99.90
48876;DHT22;34689;51.644;5.618;2023-04-12T08:06:40;9.50;99.90
48876;DHT22;34689;51.644;5.618;2023-04-12T08:09:06;9.50;99.90
48876;DHT22;34689;51.644;5.618;2023-04-12T08:11:32;9.50;99.90
48876;DHT22;34689;51.644;5.618;2023-04-12T08:13:59;9.50;99.90
48876;DHT22;34689;51.644;5.618;2023-04-12T08:16:25;9.60;99.90
48876;DHT22;34689;51.644;5.618;2023-04-12T08:18:52;9.60;99.90
48876;DHT22;34689;51.644;5.618;2023-04-12T08:21:20;9.70;99.90
48876;DHT22;34689;51.644;5.618;2023-04-12T08:23:46;9.70;99.90
48876;DHT22;34689;51.644;5.618;2023-04-12T08:26:13;9.70;99.90
48876;DHT22;34689;51.644;5.618;2023-04-12T08:28:38;9.70;99.90
48876;DHT22;34689;51.644;5.618;2023-04-12T08:31:04;9.70;99.90
48876;DHT22;34689;51.644;5.618;2023-04-12T08:33:31;9.70;99.90
48876;DHT22;34689;51.644;5.618;2023-04-12T08:35:58;9.80;99.90
48876;DHT22;34689;51.644;5.618;2023-04-12T08:38:27;9.80;99.90
48876;DHT22;34689;51.644;5.618;2023-04-12T08:40:53;9.80;99.90
48876;DHT22;34689;51.644;5.618;2023-04-12T08:43:19;9.80;99.90
48876;DHT22;34689;51.644;5.618;2023-04-12T08:45:47;9.80;99.90
48876;DHT22;34689;51.644;5.618;2023-04-12T08:48:14;9.80;99.90
48876;DHT22;34689;51.644;5.618;2023-04-12T08:50:42;9.70;99.90
48876;DHT22;34689;51.644;5.618;2023-04-12T08:53:09;9.80;99.90
48876;DHT22;34689;51.644;5.618;2023-04-12T08:55:36;9.70;99.90
48876;DHT22;34689;51.644;5.618;2023-04-12T08:58:02;9.70;99.90
48876;DHT22;34689;51.644;5.618;2023-04-12T09:00:32;9.70;99.90
48876;DHT22;34689;51.644;5.618;2023-04-12T09:02:59;9.80;99.90
48876;DHT22;34689;51.644;5.618;2023-04-12T09:05:28;9.90;99.90
48876;DHT22;34689;51.644;5.618;2023-04-12T09:07:55;9.90;99.90
48876;DHT22;34689;51.644;5.618;2023-04-12T09:10:32;10.00;99.90
48876;DHT22;34689;51.644;5.618;2023-04-12T09:12:59;10.00;99.90
48876;DHT22;34689;51.644;5.618;2023-04-12T09:15:25;10.10;99.90
48876;DHT22;34689;51.644;5.618;2023-04-12T09:18:08;10.20;99.90
48876;DHT22;34689;51.644;5.618;2023-04-12T09:20:35;10.30;99.90
48876;DHT22;34689;51.644;5.618;2023-04-12T09:23:21;10.50;99.90
48876;DHT22;34689;51.644;5.618;2023-04-12T09:25:48;10.60;99.90
48876;DHT22;34689;51.644;5.618;2023-04-12T09:28:22;10.70;99.90
48876;DHT22;34689;51.644;5.618;2023-04-12T09:30:48;10.80;99.90
48876;DHT22;34689;51.644;5.618;2023-04-12T09:33:34;10.90;99.90
48876;DHT22;34689;51.644;5.618;2023-04-12T09:36:03;11.00;99.90
48876;DHT22;34689;51.644;5.618;2023-04-12T09:38:32;11.00;99.90
48876;DHT22;34689;51.644;5.618;2023-04-12T09:41:17;11.10;99.90
48876;DHT22;34689;51.644;5.618;2023-04-12T09:43:43;11.10;99.90
48876;DHT22;34689;51.644;5.618;2023-04-12T09:46:10;11.10;99.90
48876;DHT22;34689;51.644;5.618;2023-04-12T09:48:40;11.20;99.90
48876;DHT22;34689;51.644;5.618;2023-04-12T09:51:07;11.40;99.90
48876;DHT22;34689;51.644;5.618;2023-04-12T09:53:37;11.50;99.90
48876;DHT22;34689;51.644;5.618;2023-04-12T09:56:06;11.60;99.90
48876;DHT22;34689;51.644;5.618;2023-04-12T09:58:38;11.50;99.90
48876;DHT22;34689;51.644;5.618;2023-04-12T10:01:06;11.30;99.90
48876;DHT22;34689;51.644;5.618;2023-04-12T10:03:34;11.20;99.90
48876;DHT22;34689;51.644;5.618;2023-04-12T10:06:02;11.20;99.90
48876;DHT22;34689;51.644;5.618;2023-04-12T10:08:30;11.20;99.90
48876;DHT22;34689;51.644;5.618;2023-04-12T10:10:56;11.10;99.90
48876;DHT22;34689;51.644;5.618;2023-04-12T10:13:22;11.20;99.90
48876;DHT22;34689;51.644;5.618;2023-04-12T10:15:51;11.40;99.90
48876;DHT22;34689;51.644;5.618;2023-04-12T10:18:18;11.50;99.90
48876;DHT22;34689;51.644;5.618;2023-04-12T10:20:45;11.50;99.90
48876;DHT22;34689;51.644;5.618;2023-04-12T10:23:12;11.50;99.90
48876;DHT22;34689;51.644;5.618;2023-04-12T10:25:38;11.50;99.90
48876;DHT22;34689;51.644;5.618;2023-04-12T10:28:17;11.50;99.90
48876;DHT22;34689;51.644;5.618;2023-04-12T10:30:44;11.50;99.90
48876;DHT22;34689;51.644;5.618;2023-04-12T10:33:13;11.50;99.90
48876;DHT22;34689;51.644;5.618;2023-04-12T10:36:01;11.40;99.90
48876;DHT22;34689;51.644;5.618;2023-04-12T10:38:47;11.30;99.90
48876;DHT22;34689;51.644;5.618;2023-04-12T10:41:16;11.30;99.90
48876;DHT22;34689;51.644;5.618;2023-04-12T10:43:47;11.30;99.90
48876;DHT22;34689;51.644;5.618;2023-04-12T10:49:10;11.40;99.90
48876;DHT22;34689;51.644;5.618;2023-04-12T10:51:35;11.50;99.90
48876;DHT22;34689;51.644;5.618;2023-04-12T10:56:34;11.50;99.90
48876;DHT22;34689;51.644;5.618;2023-04-12T10:59:05;11.50;99.90
48876;DHT22;34689;51.644;5.618;2023-04-12T11:01:31;11.50;99.90
48876;DHT22;34689;51.644;5.618;2023-04-12T11:09:19;11.60;99.90
48876;DHT22;34689;51.644;5.618;2023-04-12T11:11:46;11.50;99.90
48876;DHT22;34689;51.644;5.618;2023-04-12T11:14:14;11.50;99.90
48876;DHT22;34689;51.644;5.618;2023-04-12T11:19:37;11.50;99.90
48876;DHT22;34689;51.644;5.618;2023-04-12T11:22:04;11.40;99.90
48876;DHT22;34689;51.644;5.618;2023-04-12T11:24:34;11.30;99.90
48876;DHT22;34689;51.644;5.618;2023-04-12T11:27:02;11.30;99.90
48876;DHT22;34689;51.644;5.618;2023-04-12T11:29:28;11.20;99.90
48876;DHT22;34689;51.644;5.618;2023-04-12T11:31:57;11.20;99.90
48876;DHT22;34689;51.644;5.618;2023-04-12T11:34:23;11.20;99.90
48876;DHT22;34689;51.644;5.618;2023-04-12T11:36:52;11.20;99.90
48876;DHT22;34689;51.644;5.618;2023-04-12T11:39:19;11.20;99.90
48876;DHT22;34689;51.644;5.618;2023-04-12T11:41:46;11.20;99.90
48876;DHT22;34689;51.644;5.618;2023-04-12T11:44:13;11.20;99.90
48876;DHT22;34689;51.644;5.618;2023-04-12T11:46:40;11.20;99.90
48876;DHT22;34689;51.644;5.618;2023-04-12T11:49:05;11.10;99.90
48876;DHT22;34689;51.644;5.618;2023-04-12T11:51:31;11.10;99.90
48876;DHT22;34689;51.644;5.618;2023-04-12T11:53:58;11.10;99.90
48876;DHT22;34689;51.644;5.618;2023-04-12T11:56:24;11.00;99.90
48876;DHT22;34689;51.644;5.618;2023-04-12T11:58:50;11.00;99.90
48876;DHT22;34689;51.644;5.618;2023-04-12T12:01:18;11.00;99.90
48876;DHT22;34689;51.644;5.618;2023-04-12T12:03:45;11.10;99.90
48876;DHT22;34689;51.644;5.618;2023-04-12T12:06:11;11.20;99.90
48876;DHT22;34689;51.644;5.618;2023-04-12T12:08:38;11.30;99.90
48876;DHT22;34689;51.644;5.618;2023-04-12T12:11:04;11.40;99.90
48876;DHT22;34689;51.644;5.618;2023-04-12T12:16:15;11.60;99.90
48876;DHT22;34689;51.644;5.618;2023-04-12T12:18:42;11.80;99.90
48876;DHT22;34689;51.644;5.618;2023-04-12T12:21:10;12.00;99.90
48876;DHT22;34689;51.644;5.618;2023-04-12T12:23:36;12.20;99.90
48876;DHT22;34689;51.644;5.618;2023-04-12T12:26:03;12.20;99.90
48876;DHT22;34689;51.644;5.618;2023-04-12T12:28:29;12.20;99.90
48876;DHT22;34689;51.644;5.618;2023-04-12T12:30:58;12.20;99.90
48876;DHT22;34689;51.644;5.618;2023-04-12T12:33:24;12.00;99.90
48876;DHT22;34689;51.644;5.618;2023-04-12T12:36:01;12.00;99.90
48876;DHT22;34689;51.644;5.618;2023-04-12T12:38:42;11.80;99.90
48876;DHT22;34689;51.644;5.618;2023-04-12T12:41:19;11.80;99.90
48876;DHT22;34689;51.644;5.618;2023-04-12T12:43:50;11.60;99.90
48876;DHT22;34689;51.644;5.618;2023-04-12T12:46:18;11.50;99.90
48876;DHT22;34689;51.644;5.618;2023-04-12T12:48:45;11.30;99.90
48876;DHT22;34689;51.644;5.618;2023-04-12T12:51:12;11.20;99.90
48876;DHT22;34689;51.644;5.618;2023-04-12T12:53:39;11.10;99.90
48876;DHT22;34689;51.644;5.618;2023-04-12T12:56:09;10.90;99.90
48876;DHT22;34689;51.644;5.618;2023-04-12T12:58:38;10.90;99.90
48876;DHT22;34689;51.644;5.618;2023-04-12T13:01:05;10.80;99.90
48876;DHT22;34689;51.644;5.618;2023-04-12T13:03:31;10.70;99.90
48876;DHT22;34689;51.644;5.618;2023-04-12T13:05:57;10.60;99.90
48876;DHT22;34689;51.644;5.618;2023-04-12T13:08:24;10.60;99.90
48876;DHT22;34689;51.644;5.618;2023-04-12T13:10:50;10.70;99.90
48876;DHT22;34689;51.644;5.618;2023-04-12T13:13:16;10.80;99.90
48876;DHT22;34689;51.644;5.618;2023-04-12T13:15:42;10.80;99.90
48876;DHT22;34689;51.644;5.618;2023-04-12T13:18:08;10.80;99.90
48876;DHT22;34689;51.644;5.618;2023-04-12T13:20:34;10.90;99.90
48876;DHT22;34689;51.644;5.618;2023-04-12T13:23:03;10.80;99.90
48876;DHT22;34689;51.644;5.618;2023-04-12T13:25:29;10.90;99.90
48876;DHT22;34689;51.644;5.618;2023-04-12T13:27:55;10.90;99.90
48876;DHT22;34689;51.644;5.618;2023-04-12T13:30:20;10.90;99.90
48876;DHT22;34689;51.644;5.618;2023-04-12T13:32:46;10.90;99.90
48876;DHT22;34689;51.644;5.618;2023-04-12T13:35:12;10.90;99.90
48876;DHT22;34689;51.644;5.618;2023-04-12T13:37:38;10.80;99.90
48876;DHT22;34689;51.644;5.618;2023-04-12T13:40:04;10.80;99.90
48876;DHT22;34689;51.644;5.618;2023-04-12T13:42:30;10.80;99.90
48876;DHT22;34689;51.644;5.618;2023-04-12T13:44:56;10.80;99.90
48876;DHT22;34689;51.644;5.618;2023-04-12T13:47:25;10.80;99.90
48876;DHT22;34689;51.644;5.618;2023-04-12T13:49:51;10.80;99.90
48876;DHT22;34689;51.644;5.618;2023-04-12T13:52:18;10.70;99.90
48876;DHT22;34689;51.644;5.618;2023-04-12T13:54:45;10.60;99.90
48876;DHT22;34689;51.644;5.618;2023-04-12T13:57:10;10.50;99.90
48876;DHT22;34689;51.644;5.618;2023-04-12T13:59:36;10.50;99.90
48876;DHT22;34689;51.644;5.618;2023-04-12T14:02:02;10.50;99.90
48876;DHT22;34689;51.644;5.618;2023-04-12T14:04:29;10.30;99.90
48876;DHT22;34689;51.644;5.618;2023-04-12T14:06:55;10.30;99.90
48876;DHT22;34689;51.644;5.618;2023-04-12T14:09:29;10.30;99.90
48876;DHT22;34689;51.644;5.618;2023-04-12T14:11:57;10.30;99.90
48876;DHT22;34689;51.644;5.618;2023-04-12T14:14:24;10.30;99.90
48876;DHT22;34689;51.644;5.618;2023-04-12T14:16:52;10.30;99.90
48876;DHT22;34689;51.644;5.618;2023-04-12T14:19:19;10.40;99.90
48876;DHT22;34689;51.644;5.618;2023-04-12T14:21:46;10.50;99.90
48876;DHT22;34689;51.644;5.618;2023-04-12T14:24:14;10.50;99.90
48876;DHT22;34689;51.644;5.618;2023-04-12T14:26:40;10.60;99.90
48876;DHT22;34689;51.644;5.618;2023-04-12T14:29:06;10.60;99.90
48876;DHT22;34689;51.644;5.618;2023-04-12T14:31:33;10.60;99.90
48876;DHT22;34689;51.644;5.618;2023-04-12T14:34:03;10.70;99.90
48876;DHT22;34689;51.644;5.618;2023-04-12T14:36:28;10.70;99.90
48876;DHT22;34689;51.644;5.618;2023-04-12T14:38:55;10.70;99.90
48876;DHT22;34689;51.644;5.618;2023-04-12T14:41:21;10.70;99.90
48876;DHT22;34689;51.644;5.618;2023-04-12T14:43:47;10.60;99.90
48876;DHT22;34689;51.644;5.618;2023-04-12T14:46:12;10.60;99.90
48876;DHT22;34689;51.644;5.618;2023-04-12T14:48:39;10.50;99.90
48876;DHT22;34689;51.644;5.618;2023-04-12T14:51:05;10.40;99.90
48876;DHT22;34689;51.644;5.618;2023-04-12T14:53:32;10.40;99.90
48876;DHT22;34689;51.644;5.618;2023-04-12T14:55:58;10.30;99.90
48876;DHT22;34689;51.644;5.618;2023-04-12T14:58:25;10.10;99.90
48876;DHT22;34689;51.644;5.618;2023-04-12T15:00:54;9.70;99.90
48876;DHT22;34689;51.644;5.618;2023-04-12T15:03:20;9.40;99.90
48876;DHT22;34689;51.644;5.618;2023-04-12T15:05:46;9.20;99.90
48876;DHT22;34689;51.644;5.618;2023-04-12T15:08:13;9.00;99.90
48876;DHT22;34689;51.644;5.618;2023-04-12T15:10:40;8.80;99.90
48876;DHT22;34689;51.644;5.618;2023-04-12T15:13:05;8.80;99.90
48876;DHT22;34689;51.644;5.618;2023-04-12T15:15:31;8.80;99.90
48876;DHT22;34689;51.644;5.618;2023-04-12T15:17:57;8.80;99.90
48876;DHT22;34689;51.644;5.618;2023-04-12T15:20:22;8.70;99.90
48876;DHT22;34689;51.644;5.618;2023-04-12T15:22:48;8.70;99.90
48876;DHT22;34689;51.644;5.618;2023-04-12T15:25:13;8.70;99.90
48876;DHT22;34689;51.644;5.618;2023-04-12T15:27:39;8.70;99.90
48876;DHT22;34689;51.644;5.618;2023-04-12T15:30:05;8.70;99.90
48876;DHT22;34689;51.644;5.618;2023-04-12T15:32:33;8.70;99.90
48876;DHT22;34689;51.644;5.618;2023-04-12T15:35:02;8.70;99.90
48876;DHT22;34689;51.644;5.618;2023-04-12T15:37:32;8.70;99.90
48876;DHT22;34689;51.644;5.618;2023-04-12T15:40:02;8.80;99.90
48876;DHT22;34689;51.644;5.618;2023-04-12T15:42:39;8.80;99.90
48876;DHT22;34689;51.644;5.618;2023-04-12T15:45:06;8.80;99.90
48876;DHT22;34689;51.644;5.618;2023-04-12T15:47:32;8.80;99.90
48876;DHT22;34689;51.644;5.618;2023-04-12T15:49:58;8.80;99.90
48876;DHT22;34689;51.644;5.618;2023-04-12T15:52:23;8.90;99.90
48876;DHT22;34689;51.644;5.618;2023-04-12T15:54:50;8.90;99.90
48876;DHT22;34689;51.644;5.618;2023-04-12T15:57:16;8.90;99.90
48876;DHT22;34689;51.644;5.618;2023-04-12T15:59:41;8.90;99.90
48876;DHT22;34689;51.644;5.618;2023-04-12T16:02:07;8.90;99.90
48876;DHT22;34689;51.644;5.618;2023-04-12T16:04:35;9.00;99.90